sensor_id;sensor_type;location;lat;lon;timestamp;temperature;humidity
24374;DHT22;12498;50.880;12.096;2023-03-01T00:00:52;-0.80;18.30
24374;DHT22;12498;50.880;12.096;2023-03-01T00:03:17;-0.80;19.00
24374;DHT22;12498;50.880;12.096;2023-03-01T00:05:44;-0.80;23.20
24374;DHT22;12498;50.880;12.096;2023-03-01T00:08:09;-0.80;23.20
24374;DHT22;12498;50.880;12.096;2023-03-01T00:10:35;-0.80;23.60
24374;DHT22;12498;50.880;12.096;2023-03-01T00:13:01;-0.80;21.00
24374;DHT22;12498;50.880;12.096;2023-03-01T00:15:26;0.10;16.50
24374;DHT22;12498;50.880;12.096;2023-03-01T00:17:52;-0.80;13.40
24374;DHT22;12498;50.880;12.096;2023-03-01T00:20:17;-0.80;14.50
24374;DHT22;12498;50.880;12.096;2023-03-01T00:22:43;-0.80;15.40
24374;DHT22;12498;50.880;12.096;2023-03-01T00:25:08;-0.80;21.20
24374;DHT22;12498;50.880;12.096;2023-03-01T00:27:34;-0.90;24.50
24374;DHT22;12498;50.880;12.096;2023-03-01T00:30:00;-0.90;22.60
24374;DHT22;12498;50.880;12.096;2023-03-01T00:32:25;-0.90;22.50
24374;DHT22;12498;50.880;12.096;2023-03-01T00:34:51;-0.20;24.10
24374;DHT22;12498;50.880;12.096;2023-03-01T00:37:23;-1.00;24.10
24374;DHT22;12498;50.880;12.096;2023-03-01T00:39:48;-1.00;28.60
24374;DHT22;12498;50.880;12.096;2023-03-01T00:42:14;-1.00;32.60
24374;DHT22;12498;50.880;12.096;2023-03-01T00:44:40;-1.10;24.40
24374;DHT22;12498;50.880;12.096;2023-03-01T00:47:05;-1.10;26.40
24374;DHT22;12498;50.880;12.096;2023-03-01T00:49:31;-1.10;27.80
24374;DHT22;12498;50.880;12.096;2023-03-01T00:51:56;-1.10;35.00
24374;DHT22;12498;50.880;12.096;2023-03-01T00:54:22;-1.20;33.00
24374;DHT22;12498;50.880;12.096;2023-03-01T00:56:47;-1.20;36.40
24374;DHT22;12498;50.880;12.096;2023-03-01T00:59:13;-1.20;43.40
24374;DHT22;12498;50.880;12.096;2023-03-01T01:01:38;-1.30;36.80
24374;DHT22;12498;50.880;12.096;2023-03-01T01:04:05;-1.30;38.30
24374;DHT22;12498;50.880;12.096;2023-03-01T01:06:32;-1.20;40.90
24374;DHT22;12498;50.880;12.096;2023-03-01T01:08:58;-1.10;43.30
24374;DHT22;12498;50.880;12.096;2023-03-01T01:11:24;-1.40;49.10
24374;DHT22;12498;50.880;12.096;2023-03-01T01:13:50;-1.30;41.70
24374;DHT22;12498;50.880;12.096;2023-03-01T01:16:17;-1.50;39.70
24374;DHT22;12498;50.880;12.096;2023-03-01T01:18:43;-1.50;49.60
24374;DHT22;12498;50.880;12.096;2023-03-01T01:21:10;-1.50;48.20
24374;DHT22;12498;50.880;12.096;2023-03-01T01:23:36;-1.60;43.00
24374;DHT22;12498;50.880;12.096;2023-03-01T01:26:03;-1.60;42.60
24374;DHT22;12498;50.880;12.096;2023-03-01T01:28:28;-1.60;39.80
24374;DHT22;12498;50.880;12.096;2023-03-01T01:30:54;-1.10;40.30
24374;DHT22;12498;50.880;12.096;2023-03-01T01:33:19;-1.70;34.80
24374;DHT22;12498;50.880;12.096;2023-03-01T01:35:45;-0.90;40.10
24374;DHT22;12498;50.880;12.096;2023-03-01T01:38:11;-0.90;47.70
24374;DHT22;12498;50.880;12.096;2023-03-01T01:40:42;-1.70;53.60
24374;DHT22;12498;50.880;12.096;2023-03-01T01:43:12;-1.70;57.70
24374;DHT22;12498;50.880;12.096;2023-03-01T01:45:41;-1.40;56.90
24374;DHT22;12498;50.880;12.096;2023-03-01T01:48:10;-1.80;55.00
24374;DHT22;12498;50.880;12.096;2023-03-01T01:50:38;-1.50;49.00
24374;DHT22;12498;50.880;12.096;2023-03-01T01:53:13;-1.80;57.50
24374;DHT22;12498;50.880;12.096;2023-03-01T01:55:41;-1.90;45.90
24374;DHT22;12498;50.880;12.096;2023-03-01T01:58:08;-1.20;53.60
24374;DHT22;12498;50.880;12.096;2023-03-01T02:00:34;-1.90;47.50
24374;DHT22;12498;50.880;12.096;2023-03-01T02:03:07;-2.00;44.40
24374;DHT22;12498;50.880;12.096;2023-03-01T02:06:20;-2.00;52.30
24374;DHT22;12498;50.880;12.096;2023-03-01T02:08:20;-2.00;52.70
24374;DHT22;12498;50.880;12.096;2023-03-01T02:10:46;-2.00;59.40
24374;DHT22;12498;50.880;12.096;2023-03-01T02:13:11;-2.00;57.00
24374;DHT22;12498;50.880;12.096;2023-03-01T02:15:37;-2.00;52.40
24374;DHT22;12498;50.880;12.096;2023-03-01T02:18:03;-2.10;41.80
24374;DHT22;12498;50.880;12.096;2023-03-01T02:20:34;-1.70;44.00
24374;DHT22;12498;50.880;12.096;2023-03-01T02:23:03;-2.10;49.90
24374;DHT22;12498;50.880;12.096;2023-03-01T02:25:33;-2.20;54.10
24374;DHT22;12498;50.880;12.096;2023-03-01T02:30:39;-2.20;48.00
24374;DHT22;12498;50.880;12.096;2023-03-01T02:33:25;-2.20;53.50
24374;DHT22;12498;50.880;12.096;2023-03-01T02:35:51;-2.20;46.00
24374;DHT22;12498;50.880;12.096;2023-03-01T02:38:17;-2.00;43.90
24374;DHT22;12498;50.880;12.096;2023-03-01T02:40:43;-2.30;61.80
24374;DHT22;12498;50.880;12.096;2023-03-01T02:43:10;-2.30;67.10
24374;DHT22;12498;50.880;12.096;2023-03-01T02:45:36;-2.30;65.60
24374;DHT22;12498;50.880;12.096;2023-03-01T02:48:02;-2.30;63.00
24374;DHT22;12498;50.880;12.096;2023-03-01T02:55:28;-2.40;50.30
24374;DHT22;12498;50.880;12.096;2023-03-01T02:57:54;-2.40;42.30
24374;DHT22;12498;50.880;12.096;2023-03-01T03:00:21;-2.00;51.00
24374;DHT22;12498;50.880;12.096;2023-03-01T03:02:51;-2.50;65.00
24374;DHT22;12498;50.880;12.096;2023-03-01T03:05:18;-2.40;70.40
24374;DHT22;12498;50.880;12.096;2023-03-01T03:07:45;-2.50;67.50
24374;DHT22;12498;50.880;12.096;2023-03-01T03:10:12;-2.00;72.40
24374;DHT22;12498;50.880;12.096;2023-03-01T03:12:38;-2.50;77.20
24374;DHT22;12498;50.880;12.096;2023-03-01T03:15:05;-2.50;78.50
24374;DHT22;12498;50.880;12.096;2023-03-01T03:17:35;-2.50;58.90
24374;DHT22;12498;50.880;12.096;2023-03-01T03:20:01;-2.50;59.40
24374;DHT22;12498;50.880;12.096;2023-03-01T03:22:28;-2.00;61.20
24374;DHT22;12498;50.880;12.096;2023-03-01T03:24:54;-2.60;74.90
24374;DHT22;12498;50.880;12.096;2023-03-01T03:27:19;-2.30;64.10
24374;DHT22;12498;50.880;12.096;2023-03-01T03:29:44;-2.60;73.50
24374;DHT22;12498;50.880;12.096;2023-03-01T03:32:10;-2.60;62.10
24374;DHT22;12498;50.880;12.096;2023-03-01T03:34:35;-2.70;56.00
24374;DHT22;12498;50.880;12.096;2023-03-01T03:37:01;-2.10;68.90
24374;DHT22;12498;50.880;12.096;2023-03-01T03:39:27;-2.00;86.40
24374;DHT22;12498;50.880;12.096;2023-03-01T03:41:53;-2.40;96.40
24374;DHT22;12498;50.880;12.096;2023-03-01T03:44:19;-2.40;99.30
24374;DHT22;12498;50.880;12.096;2023-03-01T03:46:44;-2.70;99.90
24374;DHT22;12498;50.880;12.096;2023-03-01T03:49:10;-2.60;99.90
24374;DHT22;12498;50.880;12.096;2023-03-01T03:51:35;-2.20;99.90
24374;DHT22;12498;50.880;12.096;2023-03-01T03:54:03;-2.60;99.90
24374;DHT22;12498;50.880;12.096;2023-03-01T03:56:29;-2.70;99.90
24374;DHT22;12498;50.880;12.096;2023-03-01T03:58:54;-2.70;99.90
24374;DHT22;12498;50.880;12.096;2023-03-01T04:01:20;-2.70;99.90
24374;DHT22;12498;50.880;12.096;2023-03-01T04:03:45;-2.80;92.30
24374;DHT22;12498;50.880;12.096;2023-03-01T04:06:12;-2.80;83.30
24374;DHT22;12498;50.880;12.096;2023-03-01T04:08:38;-2.80;82.80
24374;DHT22;12498;50.880;12.096;2023-03-01T04:11:04;-2.10;77.20
24374;DHT22;12498;50.880;12.096;2023-03-01T04:14:00;-2.80;69.00
24374;DHT22;12498;50.880;12.096;2023-03-01T04:16:25;-2.90;85.20
24374;DHT22;12498;50.880;12.096;2023-03-01T04:18:51;-2.80;86.00
24374;DHT22;12498;50.880;12.096;2023-03-01T04:21:18;-2.90;82.00
24374;DHT22;12498;50.880;12.096;2023-03-01T04:23:45;-3.00;76.50
24374;DHT22;12498;50.880;12.096;2023-03-01T04:26:10;-2.90;91.00
24374;DHT22;12498;50.880;12.096;2023-03-01T04:28:37;-2.80;93.50
24374;DHT22;12498;50.880;12.096;2023-03-01T04:31:05;-2.90;92.00
24374;DHT22;12498;50.880;12.096;2023-03-01T04:33:45;-3.00;73.70
24374;DHT22;12498;50.880;12.096;2023-03-01T04:36:11;-3.00;75.90
24374;DHT22;12498;50.880;12.096;2023-03-01T04:38:38;-2.60;79.70
24374;DHT22;12498;50.880;12.096;2023-03-01T04:41:05;-3.00;75.30
24374;DHT22;12498;50.880;12.096;2023-03-01T04:43:30;-3.00;80.20
24374;DHT22;12498;50.880;12.096;2023-03-01T04:45:59;-2.90;94.90
24374;DHT22;12498;50.880;12.096;2023-03-01T04:48:28;-3.00;92.40
24374;DHT22;12498;50.880;12.096;2023-03-01T04:50:53;-2.30;99.90
24374;DHT22;12498;50.880;12.096;2023-03-01T04:53:19;-2.90;99.90
24374;DHT22;12498;50.880;12.096;2023-03-01T04:55:44;-1.90;97.50
24374;DHT22;12498;50.880;12.096;2023-03-01T04:58:10;-2.90;96.30
24374;DHT22;12498;50.880;12.096;2023-03-01T05:00:35;-2.90;94.50
24374;DHT22;12498;50.880;12.096;2023-03-01T05:03:00;-3.00;92.80
24374;DHT22;12498;50.880;12.096;2023-03-01T05:05:27;-2.00;92.30
24374;DHT22;12498;50.880;12.096;2023-03-01T05:07:56;-3.00;82.80
24374;DHT22;12498;50.880;12.096;2023-03-01T05:10:22;-2.70;78.40
24374;DHT22;12498;50.880;12.096;2023-03-01T05:12:48;-3.00;79.00
24374;DHT22;12498;50.880;12.096;2023-03-01T05:15:13;-1.80;80.10
24374;DHT22;12498;50.880;12.096;2023-03-01T05:17:39;-2.90;79.00
24374;DHT22;12498;50.880;12.096;2023-03-01T05:20:05;-3.10;77.90
24374;DHT22;12498;50.880;12.096;2023-03-01T05:22:34;-3.10;68.70
24374;DHT22;12498;50.880;12.096;2023-03-01T05:25:00;-3.20;66.50
24374;DHT22;12498;50.880;12.096;2023-03-01T05:27:25;-3.10;85.10
24374;DHT22;12498;50.880;12.096;2023-03-01T05:29:51;-3.10;74.70
24374;DHT22;12498;50.880;12.096;2023-03-01T05:32:17;-3.10;69.70
24374;DHT22;12498;50.880;12.096;2023-03-01T05:34:42;-2.00;99.90
24374;DHT22;12498;50.880;12.096;2023-03-01T05:37:08;-0.60;99.90
24374;DHT22;12498;50.880;12.096;2023-03-01T05:39:34;-0.80;99.90
24374;DHT22;12498;50.880;12.096;2023-03-01T05:42:00;-1.20;99.90
24374;DHT22;12498;50.880;12.096;2023-03-01T05:44:27;-1.60;99.90
24374;DHT22;12498;50.880;12.096;2023-03-01T05:46:53;-2.60;99.90
24374;DHT22;12498;50.880;12.096;2023-03-01T05:49:19;-2.50;99.90
24374;DHT22;12498;50.880;12.096;2023-03-01T05:51:47;-2.80;99.90
24374;DHT22;12498;50.880;12.096;2023-03-01T05:54:14;-2.70;99.90
24374;DHT22;12498;50.880;12.096;2023-03-01T05:56:39;-3.00;99.90
24374;DHT22;12498;50.880;12.096;2023-03-01T05:59:05;-3.10;99.90
24374;DHT22;12498;50.880;12.096;2023-03-01T06:01:31;-3.10;99.90
24374;DHT22;12498;50.880;12.096;2023-03-01T06:03:57;-3.20;99.90
24374;DHT22;12498;50.880;12.096;2023-03-01T06:06:23;-3.20;99.90
24374;DHT22;12498;50.880;12.096;2023-03-01T06:08:49;-3.20;99.90
24374;DHT22;12498;50.880;12.096;2023-03-01T06:11:14;-2.70;99.90
24374;DHT22;12498;50.880;12.096;2023-03-01T06:13:41;-3.10;99.90
24374;DHT22;12498;50.880;12.096;2023-03-01T06:16:06;-3.30;99.90
24374;DHT22;12498;50.880;12.096;2023-03-01T06:18:32;-3.30;99.90
24374;DHT22;12498;50.880;12.096;2023-03-01T06:20:58;-3.30;99.90
24374;DHT22;12498;50.880;12.096;2023-03-01T06:23:23;-3.20;99.90
24374;DHT22;12498;50.880;12.096;2023-03-01T06:25:49;-3.30;99.90
24374;DHT22;12498;50.880;12.096;2023-03-01T06:28:15;-3.30;99.90
24374;DHT22;12498;50.880;12.096;2023-03-01T06:30:40;-3.30;99.90
24374;DHT22;12498;50.880;12.096;2023-03-01T06:33:06;-3.30;99.90
24374;DHT22;12498;50.880;12.096;2023-03-01T06:35:31;-1.90;99.90
24374;DHT22;12498;50.880;12.096;2023-03-01T06:38:00;-3.30;99.90
24374;DHT22;12498;50.880;12.096;2023-03-01T06:40:26;-2.30;99.90
24374;DHT22;12498;50.880;12.096;2023-03-01T06:42:54;-2.60;99.90
24374;DHT22;12498;50.880;12.096;2023-03-01T06:45:20;-3.10;99.90
24374;DHT22;12498;50.880;12.096;2023-03-01T06:47:46;-2.10;99.90
24374;DHT22;12498;50.880;12.096;2023-03-01T06:50:11;-3.00;99.90
24374;DHT22;12498;50.880;12.096;2023-03-01T06:52:37;-3.00;99.90
24374;DHT22;12498;50.880;12.096;2023-03-01T06:55:03;-3.00;99.90
24374;DHT22;12498;50.880;12.096;2023-03-01T06:57:29;-3.00;99.90
24374;DHT22;12498;50.880;12.096;2023-03-01T06:59:55;-3.00;99.90
24374;DHT22;12498;50.880;12.096;2023-03-01T07:02:20;-2.80;99.90
24374;DHT22;12498;50.880;12.096;2023-03-01T07:04:46;-2.70;99.90
24374;DHT22;12498;50.880;12.096;2023-03-01T07:07:11;-2.70;99.90
24374;DHT22;12498;50.880;12.096;2023-03-01T07:09:37;-2.70;99.90
24374;DHT22;12498;50.880;12.096;2023-03-01T07:12:03;-2.60;99.90
24374;DHT22;12498;50.880;12.096;2023-03-01T07:14:28;-2.60;99.90
24374;DHT22;12498;50.880;12.096;2023-03-01T07:16:54;-2.20;99.90
24374;DHT22;12498;50.880;12.096;2023-03-01T07:19:20;-2.50;99.90
24374;DHT22;12498;50.880;12.096;2023-03-01T07:21:45;-2.60;99.90
24374;DHT22;12498;50.880;12.096;2023-03-01T07:24:11;-2.60;99.90
24374;DHT22;12498;50.880;12.096;2023-03-01T07:26:37;-2.50;99.90
24374;DHT22;12498;50.880;12.096;2023-03-01T07:29:03;-2.10;99.90
24374;DHT22;12498;50.880;12.096;2023-03-01T07:31:29;-2.30;99.90
24374;DHT22;12498;50.880;12.096;2023-03-01T07:33:55;-2.30;99.90
24374;DHT22;12498;50.880;12.096;2023-03-01T07:36:20;-2.20;99.90
24374;DHT22;12498;50.880;12.096;2023-03-01T07:38:46;-1.80;99.90
24374;DHT22;12498;50.880;12.096;2023-03-01T07:41:12;-1.60;99.90
24374;DHT22;12498;50.880;12.096;2023-03-01T07:43:37;-1.90;99.90
24374;DHT22;12498;50.880;12.096;2023-03-01T07:46:03;-1.90;99.90
24374;DHT22;12498;50.880;12.096;2023-03-01T07:48:29;-1.80;99.90
24374;DHT22;12498;50.880;12.096;2023-03-01T07:50:59;-1.50;99.90
24374;DHT22;12498;50.880;12.096;2023-03-01T07:53:24;-1.60;99.90
24374;DHT22;12498;50.880;12.096;2023-03-01T07:55:59;-1.50;99.90
24374;DHT22;12498;50.880;12.096;2023-03-01T07:58:25;-1.10;99.90
24374;DHT22;12498;50.880;12.096;2023-03-01T08:00:50;-1.30;99.90
24374;DHT22;12498;50.880;12.096;2023-03-01T08:03:16;-1.10;99.90
24374;DHT22;12498;50.880;12.096;2023-03-01T08:05:41;-1.10;99.90
24374;DHT22;12498;50.880;12.096;2023-03-01T08:08:07;-0.90;99.90
24374;DHT22;12498;50.880;12.096;2023-03-01T08:10:32;-0.90;99.90
24374;DHT22;12498;50.880;12.096;2023-03-01T08:12:58;-0.90;99.90
24374;DHT22;12498;50.880;12.096;2023-03-01T08:15:23;-0.40;99.90
24374;DHT22;12498;50.880;12.096;2023-03-01T08:17:49;-0.80;99.90
24374;DHT22;12498;50.880;12.096;2023-03-01T08:20:14;-0.70;99.90
24374;DHT22;12498;50.880;12.096;2023-03-01T08:22:40;-0.70;99.90
24374;DHT22;12498;50.880;12.096;2023-03-01T08:25:05;-0.60;99.90
24374;DHT22;12498;50.880;12.096;2023-03-01T08:27:31;-0.40;99.90
24374;DHT22;12498;50.880;12.096;2023-03-01T08:29:56;-0.40;99.90
24374;DHT22;12498;50.880;12.096;2023-03-01T08:32:22;0.10;99.90
24374;DHT22;12498;50.880;12.096;2023-03-01T08:34:47;0.20;99.90
24374;DHT22;12498;50.880;12.096;2023-03-01T08:37:13;-0.40;99.90
24374;DHT22;12498;50.880;12.096;2023-03-01T08:39:38;-0.30;99.90
24374;DHT22;12498;50.880;12.096;2023-03-01T08:42:04;-0.10;99.90
24374;DHT22;12498;50.880;12.096;2023-03-01T08:44:29;-0.10;99.90
24374;DHT22;12498;50.880;12.096;2023-03-01T08:46:55;0.00;99.90
24374;DHT22;12498;50.880;12.096;2023-03-01T08:49:21;0.40;99.90
24374;DHT22;12498;50.880;12.096;2023-03-01T08:51:47;0.00;99.90
24374;DHT22;12498;50.880;12.096;2023-03-01T08:54:17;0.10;99.90
24374;DHT22;12498;50.880;12.096;2023-03-01T08:56:43;0.20;99.90
24374;DHT22;12498;50.880;12.096;2023-03-01T08:59:09;0.20;99.90
24374;DHT22;12498;50.880;12.096;2023-03-01T09:01:35;0.30;99.90
24374;DHT22;12498;50.880;12.096;2023-03-01T09:04:02;0.30;99.90
24374;DHT22;12498;50.880;12.096;2023-03-01T09:06:29;1.20;99.90
24374;DHT22;12498;50.880;12.096;2023-03-01T09:08:55;0.30;99.90
24374;DHT22;12498;50.880;12.096;2023-03-01T09:11:21;0.60;99.90
24374;DHT22;12498;50.880;12.096;2023-03-01T09:13:47;0.70;99.90
24374;DHT22;12498;50.880;12.096;2023-03-01T09:16:15;0.50;99.90
24374;DHT22;12498;50.880;12.096;2023-03-01T09:18:41;0.50;99.90
24374;DHT22;12498;50.880;12.096;2023-03-01T09:21:08;1.10;99.90
24374;DHT22;12498;50.880;12.096;2023-03-01T09:23:34;0.50;99.90
24374;DHT22;12498;50.880;12.096;2023-03-01T09:26:02;0.50;99.90
24374;DHT22;12498;50.880;12.096;2023-03-01T09:28:28;0.60;99.90
24374;DHT22;12498;50.880;12.096;2023-03-01T09:30:53;0.60;99.90
24374;DHT22;12498;50.880;12.096;2023-03-01T09:33:19;0.70;99.90
24374;DHT22;12498;50.880;12.096;2023-03-01T09:35:44;0.80;99.90
24374;DHT22;12498;50.880;12.096;2023-03-01T09:38:11;0.80;99.90
24374;DHT22;12498;50.880;12.096;2023-03-01T09:40:41;1.10;99.90
24374;DHT22;12498;50.880;12.096;2023-03-01T09:43:54;1.00;99.90
24374;DHT22;12498;50.880;12.096;2023-03-01T09:45:54;1.20;99.90
24374;DHT22;12498;50.880;12.096;2023-03-01T09:48:25;1.00;99.90
24374;DHT22;12498;50.880;12.096;2023-03-01T09:50:51;1.10;99.90
24374;DHT22;12498;50.880;12.096;2023-03-01T09:53:21;1.20;99.90
24374;DHT22;12498;50.880;12.096;2023-03-01T09:56:09;1.30;99.90
24374;DHT22;12498;50.880;12.096;2023-03-01T09:59:23;1.40;99.90
24374;DHT22;12498;50.880;12.096;2023-03-01T10:01:51;1.40;99.90
24374;DHT22;12498;50.880;12.096;2023-03-01T10:09:24;1.40;99.90
24374;DHT22;12498;50.880;12.096;2023-03-01T10:11:52;1.50;99.90
24374;DHT22;12498;50.880;12.096;2023-03-01T10:17:12;1.80;99.90
24374;DHT22;12498;50.880;12.096;2023-03-01T10:19:39;1.90;99.90
24374;DHT22;12498;50.880;12.096;2023-03-01T10:22:21;2.20;99.90
24374;DHT22;12498;50.880;12.096;2023-03-01T10:24:48;2.30;99.90
24374;DHT22;12498;50.880;12.096;2023-03-01T10:27:17;2.20;99.90
24374;DHT22;12498;50.880;12.096;2023-03-01T10:32:10;2.40;99.90
24374;DHT22;12498;50.880;12.096;2023-03-01T10:34:36;2.60;99.90
24374;DHT22;12498;50.880;12.096;2023-03-01T10:37:12;2.50;99.90
24374;DHT22;12498;50.880;12.096;2023-03-01T10:39:54;2.40;99.90
24374;DHT22;12498;50.880;12.096;2023-03-01T10:42:21;2.50;99.90
24374;DHT22;12498;50.880;12.096;2023-03-01T10:44:48;2.90;99.90
24374;DHT22;12498;50.880;12.096;2023-03-01T10:50:04;2.30;99.90
24374;DHT22;12498;50.880;12.096;2023-03-01T10:52:30;2.30;99.90
24374;DHT22;12498;50.880;12.096;2023-03-01T10:54:57;2.40;99.90
24374;DHT22;12498;50.880;12.096;2023-03-01T10:57:34;2.90;99.90
24374;DHT22;12498;50.880;12.096;2023-03-01T11:00:14;2.50;99.90
24374;DHT22;12498;50.880;12.096;2023-03-01T11:02:42;3.40;99.90
24374;DHT22;12498;50.880;12.096;2023-03-01T11:05:18;2.70;99.90
24374;DHT22;12498;50.880;12.096;2023-03-01T11:07:48;2.70;99.90
24374;DHT22;12498;50.880;12.096;2023-03-01T11:10:18;2.80;99.90
24374;DHT22;12498;50.880;12.096;2023-03-01T11:12:43;2.70;99.90
24374;DHT22;12498;50.880;12.096;2023-03-01T11:15:19;2.70;99.90
24374;DHT22;12498;50.880;12.096;2023-03-01T11:17:45;2.70;99.90
24374;DHT22;12498;50.880;12.096;2023-03-01T11:22:36;3.20;99.90
24374;DHT22;12498;50.880;12.096;2023-03-01T11:25:02;2.70;99.90
24374;DHT22;12498;50.880;12.096;2023-03-01T11:27:30;2.80;99.90
24374;DHT22;12498;50.880;12.096;2023-03-01T11:32:45;3.00;99.90
24374;DHT22;12498;50.880;12.096;2023-03-01T11:35:25;3.20;99.90
24374;DHT22;12498;50.880;12.096;2023-03-01T11:40:32;3.20;99.90
24374;DHT22;12498;50.880;12.096;2023-03-01T11:43:04;3.20;99.90
24374;DHT22;12498;50.880;12.096;2023-03-01T11:45:38;3.30;99.90
24374;DHT22;12498;50.880;12.096;2023-03-01T11:50:46;3.40;99.90
24374;DHT22;12498;50.880;12.096;2023-03-01T11:56:09;3.40;99.90
24374;DHT22;12498;50.880;12.096;2023-03-01T12:06:38;3.80;99.90
24374;DHT22;12498;50.880;12.096;2023-03-01T12:17:12;3.80;99.90
24374;DHT22;12498;50.880;12.096;2023-03-01T12:32:49;4.00;99.90
24374;DHT22;12498;50.880;12.096;2023-03-01T12:40:16;4.20;99.90
24374;DHT22;12498;50.880;12.096;2023-03-01T12:50:40;4.30;99.90
24374;DHT22;12498;50.880;12.096;2023-03-01T12:53:07;4.30;99.90
24374;DHT22;12498;50.880;12.096;2023-03-01T12:55:41;4.40;99.90
24374;DHT22;12498;50.880;12.096;2023-03-01T12:58:13;4.50;99.90
24374;DHT22;12498;50.880;12.096;2023-03-01T13:03:48;4.40;99.90
24374;DHT22;12498;50.880;12.096;2023-03-01T13:06:19;4.40;99.90
24374;DHT22;12498;50.880;12.096;2023-03-01T13:08:49;4.50;99.90
24374;DHT22;12498;50.880;12.096;2023-03-01T13:11:19;4.60;99.90
24374;DHT22;12498;50.880;12.096;2023-03-01T13:13:45;4.50;99.90
24374;DHT22;12498;50.880;12.096;2023-03-01T13:19:13;4.80;99.90
24374;DHT22;12498;50.880;12.096;2023-03-01T13:21:41;4.90;99.90
24374;DHT22;12498;50.880;12.096;2023-03-01T13:32:34;5.10;99.90
24374;DHT22;12498;50.880;12.096;2023-03-01T13:37:31;5.20;99.90
24374;DHT22;12498;50.880;12.096;2023-03-01T13:39:57;5.10;99.90
24374;DHT22;12498;50.880;12.096;2023-03-01T13:42:43;5.20;99.90
24374;DHT22;12498;50.880;12.096;2023-03-01T13:47:52;5.20;99.90
24374;DHT22;12498;50.880;12.096;2023-03-01T13:50:20;5.20;99.90
24374;DHT22;12498;50.880;12.096;2023-03-01T13:52:48;5.20;99.90
24374;DHT22;12498;50.880;12.096;2023-03-01T13:57:48;5.30;99.90
24374;DHT22;12498;50.880;12.096;2023-03-01T14:00:29;5.30;99.90
24374;DHT22;12498;50.880;12.096;2023-03-01T14:03:05;5.30;99.90
24374;DHT22;12498;50.880;12.096;2023-03-01T14:05:32;5.30;99.90
24374;DHT22;12498;50.880;12.096;2023-03-01T14:07:57;5.30;99.90
24374;DHT22;12498;50.880;12.096;2023-03-01T14:10:24;5.40;99.90
24374;DHT22;12498;50.880;12.096;2023-03-01T14:12:54;5.50;99.90
24374;DHT22;12498;50.880;12.096;2023-03-01T14:15:29;5.50;99.90
24374;DHT22;12498;50.880;12.096;2023-03-01T14:22:49;5.20;99.90
24374;DHT22;12498;50.880;12.096;2023-03-01T14:25:20;5.30;99.90
24374;DHT22;12498;50.880;12.096;2023-03-01T14:27:50;5.40;99.90
24374;DHT22;12498;50.880;12.096;2023-03-01T14:30:22;5.50;99.90
24374;DHT22;12498;50.880;12.096;2023-03-01T14:32:56;5.30;99.90
24374;DHT22;12498;50.880;12.096;2023-03-01T14:35:23;5.30;99.90
24374;DHT22;12498;50.880;12.096;2023-03-01T14:37:49;5.20;99.90
24374;DHT22;12498;50.880;12.096;2023-03-01T14:40:36;5.20;99.90
24374;DHT22;12498;50.880;12.096;2023-03-01T14:43:01;5.20;99.90
24374;DHT22;12498;50.880;12.096;2023-03-01T14:45:33;5.30;99.90
24374;DHT22;12498;50.880;12.096;2023-03-01T14:47:59;5.50;99.90
24374;DHT22;12498;50.880;12.096;2023-03-01T14:50:26;5.40;99.90
24374;DHT22;12498;50.880;12.096;2023-03-01T14:52:56;5.40;99.90
24374;DHT22;12498;50.880;12.096;2023-03-01T14:57:52;5.40;99.90
24374;DHT22;12498;50.880;12.096;2023-03-01T15:00:19;5.40;99.90
24374;DHT22;12498;50.880;12.096;2023-03-01T15:02:46;5.20;99.90
24374;DHT22;12498;50.880;12.096;2023-03-01T15:05:13;5.20;99.90
24374;DHT22;12498;50.880;12.096;2023-03-01T15:07:40;5.20;99.90
24374;DHT22;12498;50.880;12.096;2023-03-01T15:10:06;5.20;99.90
24374;DHT22;12498;50.880;12.096;2023-03-01T15:12:36;5.20;99.90
24374;DHT22;12498;50.880;12.096;2023-03-01T15:15:18;5.30;99.90
24374;DHT22;12498;50.880;12.096;2023-03-01T15:17:44;5.30;99.90
24374;DHT22;12498;50.880;12.096;2023-03-01T15:20:17;5.40;99.90
24374;DHT22;12498;50.880;12.096;2023-03-01T15:22:43;5.90;99.90
24374;DHT22;12498;50.880;12.096;2023-03-01T15:25:17;6.80;99.90
24374;DHT22;12498;50.880;12.096;2023-03-01T15:27:46;6.80;99.90
24374;DHT22;12498;50.880;12.096;2023-03-01T15:30:13;6.40;99.90
24374;DHT22;12498;50.880;12.096;2023-03-01T15:32:41;6.10;99.90
24374;DHT22;12498;50.880;12.096;2023-03-01T15:37:52;5.60;99.90
24374;DHT22;12498;50.880;12.096;2023-03-01T15:40:18;5.50;99.90
24374;DHT22;12498;50.880;12.096;2023-03-01T15:42:44;5.50;99.90
24374;DHT22;12498;50.880;12.096;2023-03-01T15:45:10;5.40;99.90
24374;DHT22;12498;50.880;12.096;2023-03-01T15:47:36;5.30;99.90
24374;DHT22;12498;50.880;12.096;2023-03-01T15:50:04;5.30;99.90
24374;DHT22;12498;50.880;12.096;2023-03-01T15:52:34;5.20;99.90
24374;DHT22;12498;50.880;12.096;2023-03-01T15:55:03;5.20;99.90
24374;DHT22;12498;50.880;12.096;2023-03-01T15:57:29;5.20;99.90
24374;DHT22;12498;50.880;12.096;2023-03-01T15:59:54;5.20;99.90
24374;DHT22;12498;50.880;12.096;2023-03-01T16:02:21;5.10;99.90
24374;DHT22;12498;50.880;12.096;2023-03-01T16:04:47;5.00;99.90
24374;DHT22;12498;50.880;12.096;2023-03-01T16:07:14;5.00;99.90
24374;DHT22;12498;50.880;12.096;2023-03-01T16:09:40;5.00;99.90
24374;DHT22;12498;50.880;12.096;2023-03-01T16:12:08;5.00;99.90
24374;DHT22;12498;50.880;12.096;2023-03-01T16:14:36;5.20;99.90
24374;DHT22;12498;50.880;12.096;2023-03-01T16:17:02;5.30;99.90
24374;DHT22;12498;50.880;12.096;2023-03-01T16:19:28;5.30;99.90
24374;DHT22;12498;50.880;12.096;2023-03-01T16:21:54;6.10;99.90
24374;DHT22;12498;50.880;12.096;2023-03-01T16:24:20;5.20;99.90
24374;DHT22;12498;50.880;12.096;2023-03-01T16:26:45;5.10;99.90
24374;DHT22;12498;50.880;12.096;2023-03-01T16:29:11;5.00;99.90
24374;DHT22;12498;50.880;12.096;2023-03-01T16:31:36;5.00;99.90
24374;DHT22;12498;50.880;12.096;2023-03-01T16:34:02;4.90;99.90
24374;DHT22;12498;50.880;12.096;2023-03-01T16:36:27;5.80;99.90
24374;DHT22;12498;50.880;12.096;2023-03-01T16:38:54;4.90;99.90
24374;DHT22;12498;50.880;12.096;2023-03-01T16:41:21;5.40;99.90
24374;DHT22;12498;50.880;12.096;2023-03-01T16:43:46;4.60;99.90
24374;DHT22;12498;50.880;12.096;2023-03-01T16:46:16;4.40;99.90
24374;DHT22;12498;50.880;12.096;2023-03-01T16:48:42;4.30;99.90
24374;DHT22;12498;50.880;12.096;2023-03-01T16:51:08;4.60;99.90
24374;DHT22;12498;50.880;12.096;2023-03-01T16:53:34;4.10;99.90
24374;DHT22;12498;50.880;12.096;2023-03-01T16:56:04;4.00;99.90
24374;DHT22;12498;50.880;12.096;2023-03-01T16:58:30;4.00;99.90
24374;DHT22;12498;50.880;12.096;2023-03-01T17:00:56;3.90;99.90
24374;DHT22;12498;50.880;12.096;2023-03-01T17:03:22;4.10;99.90
24374;DHT22;12498;50.880;12.096;2023-03-01T17:05:48;3.70;99.90
24374;DHT22;12498;50.880;12.096;2023-03-01T17:08:13;3.60;99.90
24374;DHT22;12498;50.880;12.096;2023-03-01T17:10:39;3.60;99.90
24374;DHT22;12498;50.880;12.096;2023-03-01T17:13:04;3.60;99.90